createdAt,value
2022-08-03T00:01:36.974Z,23.70
2022-08-03T00:04:39.562Z,23.65
2022-08-03T00:07:41.906Z,23.63
2022-08-03T00:10:44.656Z,23.65
2022-08-03T00:13:47.222Z,23.54
2022-08-03T00:16:49.808Z,23.51
2022-08-03T00:19:52.132Z,23.47
2022-08-03T00:22:54.750Z,23.50
2022-08-03T00:25:57.418Z,23.59
2022-08-03T00:29:00.037Z,23.61
2022-08-03T00:32:02.333Z,23.59
2022-08-03T00:35:09.310Z,23.51
2022-08-03T00:38:13.730Z,23.53
2022-08-03T00:41:16.318Z,23.51
2022-08-03T00:44:18.686Z,23.42
2022-08-03T00:47:21.280Z,23.37
2022-08-03T00:50:25.770Z,23.39
2022-08-03T00:53:28.712Z,23.27
2022-08-03T00:56:31.119Z,23.25
2022-08-03T00:59:34.579Z,23.31
2022-08-03T01:02:39.155Z,23.37
2022-08-03T01:05:51.546Z,23.35
2022-08-03T01:09:43.843Z,23.26
2022-08-03T01:14:01.124Z,23.14
2022-08-03T01:17:07.952Z,23.09
2022-08-03T01:20:13.648Z,23.00
2022-08-03T01:23:49.011Z,22.97
2022-08-03T01:27:08.972Z,22.94
2022-08-03T01:30:12.578Z,22.91
2022-08-03T01:33:28.342Z,22.89
2022-08-03T01:36:36.462Z,22.86
2022-08-03T01:39:41.051Z,22.81
2022-08-03T01:42:45.506Z,22.76
2022-08-03T01:45:49.707Z,22.73
2022-08-03T01:48:53.692Z,22.78
2022-08-03T01:52:04.611Z,22.73
2022-08-03T01:55:10.570Z,22.77
2022-08-03T02:01:23.218Z,22.63
2022-08-03T02:04:28.164Z,22.59
2022-08-03T02:07:32.936Z,22.55
2022-08-03T02:10:37.764Z,22.51
2022-08-03T02:13:41.488Z,22.62
2022-08-03T02:16:46.015Z,22.59
2022-08-03T02:19:50.605Z,22.59
2022-08-03T02:22:53.705Z,22.64
2022-08-03T02:26:03.090Z,22.75
2022-08-03T02:29:12.214Z,22.76
2022-08-03T02:32:20.390Z,22.84
2022-08-03T02:35:26.309Z,22.81
2022-08-03T02:38:33.687Z,22.85
2022-08-03T02:41:45.683Z,22.70
2022-08-03T02:44:51.060Z,22.76
2022-08-03T02:47:58.173Z,22.68
2022-08-03T02:51:03.863Z,22.73
2022-08-03T02:54:09.415Z,22.63
2022-08-03T02:57:14.130Z,22.54
2022-08-03T03:00:19.936Z,22.49
2022-08-03T03:03:31.892Z,22.40
2022-08-03T03:06:44.058Z,22.42
2022-08-03T03:09:50.485Z,22.38
2022-08-03T03:12:57.959Z,22.36
2022-08-03T03:16:02.543Z,22.32
2022-08-03T03:19:05.676Z,22.33
2022-08-03T03:22:08.544Z,22.37
2022-08-03T03:25:11.342Z,22.42
2022-08-03T03:28:14.479Z,22.44
2022-08-03T03:31:17.182Z,22.48
2022-08-03T03:34:19.900Z,22.27
2022-08-03T03:37:22.538Z,22.22
2022-08-03T03:40:25.622Z,22.17
2022-08-03T03:43:29.438Z,22.17
2022-08-03T03:46:32.011Z,22.21
2022-08-03T03:49:34.947Z,22.23
2022-08-03T03:52:37.603Z,22.34
2022-08-03T03:55:59.317Z,22.37
2022-08-03T03:59:03.517Z,22.31
2022-08-03T04:02:07.957Z,22.25
2022-08-03T04:05:29.412Z,22.21
2022-08-03T04:08:50.683Z,22.28
2022-08-03T04:11:58.652Z,22.30
2022-08-03T04:15:03.246Z,22.30
2022-08-03T04:18:09.687Z,22.35
2022-08-03T04:21:14.151Z,22.49
2022-08-03T04:24:18.618Z,22.70
2022-08-03T04:27:23.366Z,22.78
2022-08-03T04:30:29.989Z,22.87
2022-08-03T04:33:34.913Z,22.85
2022-08-03T04:36:44.749Z,23.08
2022-08-03T04:39:50.141Z,23.01
2022-08-03T04:42:55.822Z,22.95
2022-08-03T04:45:59.365Z,23.09
2022-08-03T04:49:02.747Z,23.19
2022-08-03T04:52:07.377Z,23.27
2022-08-03T04:55:10.170Z,23.49
2022-08-03T04:58:12.759Z,23.54
2022-08-03T05:01:16.725Z,23.55
2022-08-03T05:04:20.563Z,23.71
2022-08-03T05:07:25.195Z,23.81
2022-08-03T05:10:27.969Z,23.92
2022-08-03T05:13:30.732Z,24.00
2022-08-03T05:16:33.211Z,24.13
2022-08-03T05:19:35.967Z,24.26
2022-08-03T05:22:38.332Z,24.34
2022-08-03T05:25:49.723Z,24.55
2022-08-03T05:28:53.458Z,24.68
2022-08-03T05:31:56.442Z,24.80
2022-08-03T05:34:59.644Z,24.93
2022-08-03T05:38:28.337Z,25.10
2022-08-03T05:41:36.841Z,25.25
2022-08-03T05:44:40.383Z,25.37
2022-08-03T05:47:44.366Z,25.51
2022-08-03T05:50:47.249Z,25.57
2022-08-03T05:53:49.672Z,25.65
2022-08-03T05:56:52.370Z,25.75
2022-08-03T05:59:58.327Z,25.83
2022-08-03T06:03:02.387Z,25.84
2022-08-03T06:06:05.131Z,25.87
2022-08-03T06:09:07.673Z,25.88
2022-08-03T06:12:14.052Z,25.98
2022-08-03T06:15:18.765Z,26.05
2022-08-03T06:18:21.635Z,26.25
2022-08-03T06:21:23.993Z,26.27
2022-08-03T06:24:30.013Z,26.26
2022-08-03T06:27:37.210Z,26.37
2022-08-03T06:30:40.893Z,26.53
2022-08-03T06:34:31.185Z,26.75
2022-08-03T06:37:05.934Z,26.72
2022-08-03T06:40:31.437Z,26.87
2022-08-03T06:43:37.601Z,27.08
2022-08-03T06:46:40.806Z,27.14
2022-08-03T06:49:43.610Z,27.18
2022-08-03T06:53:06.124Z,27.27
2022-08-03T06:56:08.736Z,27.30
2022-08-03T07:00:06.109Z,27.50
2022-08-03T07:02:33.920Z,27.56
2022-08-03T07:05:36.376Z,27.72
2022-08-03T07:08:39.074Z,27.98
2022-08-03T07:11:41.452Z,28.11
2022-08-03T07:14:44.195Z,28.13
2022-08-03T07:17:46.614Z,28.24
2022-08-03T07:20:51.213Z,28.36
2022-08-03T07:23:54.192Z,28.37
2022-08-03T07:26:56.874Z,28.45
2022-08-03T07:30:00.245Z,28.49
2022-08-03T07:33:02.911Z,28.36
2022-08-03T07:36:05.351Z,28.34
2022-08-03T07:39:15.838Z,28.35
2022-08-03T07:42:20.538Z,28.60
2022-08-03T07:45:23.828Z,28.76
2022-08-03T07:48:26.232Z,28.95
2022-08-03T07:51:28.991Z,28.59
2022-08-03T07:54:32.033Z,28.93
2022-08-03T07:57:35.342Z,29.08
2022-08-03T08:00:39.401Z,29.12
2022-08-03T08:03:52.784Z,29.13
2022-08-03T08:06:55.918Z,29.10
2022-08-03T08:09:58.961Z,29.14
2022-08-03T08:13:01.814Z,29.12
2022-08-03T08:16:05.310Z,29.27
2022-08-03T08:19:08.504Z,29.42
2022-08-03T08:22:13.475Z,29.51
2022-08-03T08:25:19.473Z,29.67
2022-08-03T08:28:30.573Z,29.84
2022-08-03T08:31:34.498Z,29.96
2022-08-03T08:34:37.253Z,30.04
2022-08-03T08:37:40.644Z,30.04
2022-08-03T08:40:45.218Z,30.08
2022-08-03T08:43:47.602Z,30.23
2022-08-03T08:46:52.908Z,30.28
2022-08-03T08:50:09.416Z,30.31
2022-08-03T08:53:18.189Z,30.42
2022-08-03T08:56:25.485Z,30.34
2022-08-03T08:59:47.834Z,30.54
2022-08-03T09:02:50.970Z,30.68
2022-08-03T09:05:56.035Z,30.48
2022-08-03T09:08:58.906Z,30.61
2022-08-03T09:12:35.026Z,30.78
2022-08-03T09:15:27.002Z,31.08
2022-08-03T09:18:33.372Z,31.62
2022-08-03T09:21:35.806Z,31.92
2022-08-03T09:25:14.780Z,32.02
2022-08-03T09:28:53.973Z,32.04
2022-08-03T09:31:47.443Z,32.25
2022-08-03T09:34:55.248Z,32.13
2022-08-03T09:38:29.995Z,32.23
2022-08-03T09:41:33.609Z,32.03
2022-08-03T09:44:38.653Z,32.01
2022-08-03T09:47:45.015Z,32.14
2022-08-03T09:50:56.973Z,32.15
2022-08-03T09:54:03.921Z,32.12
2022-08-03T09:57:06.769Z,32.21
2022-08-03T10:00:16.356Z,32.34
2022-08-03T10:03:19.201Z,32.50
2022-08-03T10:06:22.364Z,32.66
2022-08-03T10:09:32.114Z,32.70
2022-08-03T10:12:34.688Z,33.02
2022-08-03T10:16:23.007Z,33.04
2022-08-03T10:19:05.254Z,32.93
2022-08-03T10:22:14.602Z,32.99
2022-08-03T10:25:18.087Z,32.99
2022-08-03T10:28:21.767Z,32.96
2022-08-03T10:31:25.048Z,33.27
2022-08-03T10:34:33.938Z,33.13
2022-08-03T10:37:57.025Z,33.34
2022-08-03T10:41:02.976Z,33.47
2022-08-03T10:44:18.922Z,33.04
2022-08-03T10:47:21.856Z,33.03
2022-08-03T10:50:26.885Z,33.15
2022-08-03T10:53:44.014Z,32.92
2022-08-03T10:57:14.421Z,32.88
2022-08-03T11:00:23.921Z,32.95
2022-08-03T11:03:32.923Z,32.99
2022-08-03T11:06:37.611Z,33.18
2022-08-03T11:09:47.695Z,33.12
2022-08-03T11:12:50.987Z,33.02
2022-08-03T11:15:59.825Z,32.41
2022-08-03T11:19:10.565Z,32.59
2022-08-03T11:22:15.791Z,33.05
2022-08-03T11:25:53.893Z,33.47
2022-08-03T11:28:43.038Z,33.89
2022-08-03T11:31:50.194Z,34.03
2022-08-03T11:35:16.493Z,34.12
2022-08-03T11:38:24.503Z,33.76
2022-08-03T11:41:34.020Z,33.45
2022-08-03T11:44:48.093Z,33.35
2022-08-03T11:47:54.875Z,33.19
2022-08-03T11:50:57.499Z,33.41
2022-08-03T11:54:02.543Z,33.36
2022-08-03T11:57:05.220Z,33.40
2022-08-03T12:00:25.845Z,33.17
2022-08-03T12:03:33.562Z,33.36
2022-08-03T12:06:54.954Z,33.60
2022-08-03T12:10:12.319Z,33.66
2022-08-03T12:14:33.139Z,33.58
2022-08-03T12:16:38.350Z,33.28
2022-08-03T12:19:44.052Z,33.30
2022-08-03T12:22:46.781Z,33.25
2022-08-03T12:25:49.547Z,33.28
2022-08-03T12:28:52.487Z,33.28
2022-08-03T12:31:55.965Z,33.39
2022-08-03T12:35:01.355Z,33.32
2022-08-03T12:38:04.635Z,33.28
2022-08-03T12:41:16.660Z,33.43
2022-08-03T12:44:29.300Z,33.37
2022-08-03T12:47:53.141Z,33.25
2022-08-03T12:51:08.438Z,32.74
2022-08-03T12:54:24.750Z,32.54
2022-08-03T12:57:43.281Z,32.68
2022-08-03T13:00:55.869Z,32.49
2022-08-03T13:03:58.329Z,32.57
2022-08-03T13:07:06.500Z,32.81
2022-08-03T13:10:31.411Z,32.82
2022-08-03T13:13:39.945Z,32.30
2022-08-03T13:16:42.306Z,32.38
2022-08-03T13:19:46.294Z,32.69
2022-08-03T13:22:48.975Z,32.94
2022-08-03T13:25:55.262Z,33.17
2022-08-03T13:28:59.143Z,33.10
2022-08-03T13:32:03.323Z,33.09
2022-08-03T13:35:07.015Z,32.94
2022-08-03T13:38:09.886Z,33.07
2022-08-03T13:41:15.421Z,33.16
2022-08-03T13:44:29.152Z,32.91
2022-08-03T13:47:32.495Z,32.87
2022-08-03T13:50:39.780Z,32.99
2022-08-03T13:53:44.956Z,33.02
2022-08-03T13:56:52.882Z,33.10
2022-08-03T13:59:55.507Z,33.14
2022-08-03T14:03:13.701Z,33.10
2022-08-03T14:06:17.252Z,32.64
2022-08-03T14:09:19.643Z,32.31
2022-08-03T14:12:22.265Z,32.53
2022-08-03T14:15:26.570Z,32.71
2022-08-03T14:18:34.078Z,33.00
2022-08-03T14:21:36.642Z,33.07
2022-08-03T14:24:39.273Z,33.08
2022-08-03T14:27:41.486Z,33.09
2022-08-03T14:30:44.336Z,33.19
2022-08-03T14:33:46.598Z,33.18
2022-08-03T14:36:49.159Z,33.29
2022-08-03T14:40:00.306Z,33.32
2022-08-03T14:43:03.931Z,33.21
2022-08-03T14:46:06.934Z,33.17
2022-08-03T14:50:36.455Z,33.23
2022-08-03T14:52:32.666Z,33.33
2022-08-03T14:55:38.558Z,33.25
2022-08-03T14:58:42.459Z,33.34
2022-08-03T15:02:04.468Z,33.32
2022-08-03T15:05:08.028Z,33.34
2022-08-03T15:08:11.137Z,33.31
2022-08-03T15:11:13.520Z,33.31
2022-08-03T15:14:16.144Z,33.25
2022-08-03T15:17:18.726Z,33.34
2022-08-03T15:20:42.673Z,33.43
2022-08-03T15:23:45.986Z,33.27
2022-08-03T15:26:48.744Z,33.35
2022-08-03T15:30:05.758Z,33.55
2022-08-03T15:33:12.957Z,33.46
2022-08-03T15:36:15.536Z,33.39
2022-08-03T15:39:18.337Z,33.43
2022-08-03T15:42:20.802Z,33.47
2022-08-03T15:45:28.209Z,33.44
2022-08-03T15:48:38.183Z,33.40
